sensor_id;sensor_type;location;lat;lon;timestamp;temperature;humidity
15413;DHT22;7805;49.554;7.632;2023-07-29T00:00:26;18.90;99.90
15413;DHT22;7805;49.554;7.632;2023-07-29T00:02:53;18.80;99.90
15413;DHT22;7805;49.554;7.632;2023-07-29T00:05:18;18.80;99.90
15413;DHT22;7805;49.554;7.632;2023-07-29T00:07:44;18.80;99.90
15413;DHT22;7805;49.554;7.632;2023-07-29T00:10:10;18.80;99.90
15413;DHT22;7805;49.554;7.632;2023-07-29T00:12:35;18.80;99.90
15413;DHT22;7805;49.554;7.632;2023-07-29T00:15:01;18.80;99.90
15413;DHT22;7805;49.554;7.632;2023-07-29T00:17:26;18.70;99.90
15413;DHT22;7805;49.554;7.632;2023-07-29T00:19:52;18.70;99.90
15413;DHT22;7805;49.554;7.632;2023-07-29T00:22:17;18.70;99.90
15413;DHT22;7805;49.554;7.632;2023-07-29T00:24:43;18.80;99.90
15413;DHT22;7805;49.554;7.632;2023-07-29T00:27:08;18.70;99.90
15413;DHT22;7805;49.554;7.632;2023-07-29T00:29:34;18.70;99.90
15413;DHT22;7805;49.554;7.632;2023-07-29T00:31:59;18.70;99.90
15413;DHT22;7805;49.554;7.632;2023-07-29T00:34:25;18.90;99.90
15413;DHT22;7805;49.554;7.632;2023-07-29T00:36:50;18.60;99.90
15413;DHT22;7805;49.554;7.632;2023-07-29T00:39:16;18.50;99.90
15413;DHT22;7805;49.554;7.632;2023-07-29T00:41:42;18.50;99.90
15413;DHT22;7805;49.554;7.632;2023-07-29T00:44:07;18.50;99.90
15413;DHT22;7805;49.554;7.632;2023-07-29T00:46:34;18.50;99.90
15413;DHT22;7805;49.554;7.632;2023-07-29T00:49:01;18.60;99.90
15413;DHT22;7805;49.554;7.632;2023-07-29T00:51:27;18.60;99.90
15413;DHT22;7805;49.554;7.632;2023-07-29T00:53:53;18.60;99.90
15413;DHT22;7805;49.554;7.632;2023-07-29T00:56:18;18.70;99.90
15413;DHT22;7805;49.554;7.632;2023-07-29T00:58:44;18.70;99.90
15413;DHT22;7805;49.554;7.632;2023-07-29T01:01:10;18.70;99.90
15413;DHT22;7805;49.554;7.632;2023-07-29T01:03:36;18.70;99.90
15413;DHT22;7805;49.554;7.632;2023-07-29T01:06:18;18.80;99.90
15413;DHT22;7805;49.554;7.632;2023-07-29T01:08:58;18.80;99.90
15413;DHT22;7805;49.554;7.632;2023-07-29T01:14:05;18.80;99.90
15413;DHT22;7805;49.554;7.632;2023-07-29T01:16:42;18.70;99.90
15413;DHT22;7805;49.554;7.632;2023-07-29T01:19:22;18.70;99.90
15413;DHT22;7805;49.554;7.632;2023-07-29T01:21:51;18.70;99.90
15413;DHT22;7805;49.554;7.632;2023-07-29T01:24:17;18.70;99.90
15413;DHT22;7805;49.554;7.632;2023-07-29T01:26:42;18.60;99.90
15413;DHT22;7805;49.554;7.632;2023-07-29T01:29:08;18.70;99.90
15413;DHT22;7805;49.554;7.632;2023-07-29T01:31:38;18.70;99.90
15413;DHT22;7805;49.554;7.632;2023-07-29T01:34:16;18.70;99.90
15413;DHT22;7805;49.554;7.632;2023-07-29T01:36:43;18.70;99.90
15413;DHT22;7805;49.554;7.632;2023-07-29T01:39:11;18.70;99.90
15413;DHT22;7805;49.554;7.632;2023-07-29T01:41:37;18.70;99.90
15413;DHT22;7805;49.554;7.632;2023-07-29T01:44:03;18.70;99.90
15413;DHT22;7805;49.554;7.632;2023-07-29T01:46:29;18.80;99.90
15413;DHT22;7805;49.554;7.632;2023-07-29T01:48:57;18.80;99.90
15413;DHT22;7805;49.554;7.632;2023-07-29T01:51:22;18.90;99.90
15413;DHT22;7805;49.554;7.632;2023-07-29T01:53:48;18.90;99.90
15413;DHT22;7805;49.554;7.632;2023-07-29T01:56:14;19.00;99.90
15413;DHT22;7805;49.554;7.632;2023-07-29T01:58:39;19.00;99.90
15413;DHT22;7805;49.554;7.632;2023-07-29T02:01:05;19.00;99.90
15413;DHT22;7805;49.554;7.632;2023-07-29T02:03:30;18.90;99.90
15413;DHT22;7805;49.554;7.632;2023-07-29T02:05:56;18.90;99.90
15413;DHT22;7805;49.554;7.632;2023-07-29T02:08:21;19.10;99.90
15413;DHT22;7805;49.554;7.632;2023-07-29T02:10:47;19.00;99.90
15413;DHT22;7805;49.554;7.632;2023-07-29T02:13:14;19.80;99.90
15413;DHT22;7805;49.554;7.632;2023-07-29T02:15:39;18.90;99.90
15413;DHT22;7805;49.554;7.632;2023-07-29T02:18:05;19.10;99.90
15413;DHT22;7805;49.554;7.632;2023-07-29T02:20:31;19.00;99.90
15413;DHT22;7805;49.554;7.632;2023-07-29T02:22:57;19.00;99.90
15413;DHT22;7805;49.554;7.632;2023-07-29T02:25:23;18.90;99.90
15413;DHT22;7805;49.554;7.632;2023-07-29T02:27:48;17.10;99.90
15413;DHT22;7805;49.554;7.632;2023-07-29T02:30:14;19.00;99.90
15413;DHT22;7805;49.554;7.632;2023-07-29T02:32:39;18.90;99.90
15413;DHT22;7805;49.554;7.632;2023-07-29T02:35:05;18.90;99.90
15413;DHT22;7805;49.554;7.632;2023-07-29T02:37:31;18.90;99.90
15413;DHT22;7805;49.554;7.632;2023-07-29T02:39:56;18.90;99.90
15413;DHT22;7805;49.554;7.632;2023-07-29T02:42:22;18.90;99.90
15413;DHT22;7805;49.554;7.632;2023-07-29T02:44:47;18.90;99.90
15413;DHT22;7805;49.554;7.632;2023-07-29T02:47:13;18.80;99.90
15413;DHT22;7805;49.554;7.632;2023-07-29T02:49:38;18.80;99.90
15413;DHT22;7805;49.554;7.632;2023-07-29T02:52:04;18.80;99.90
15413;DHT22;7805;49.554;7.632;2023-07-29T02:54:30;18.80;99.90
15413;DHT22;7805;49.554;7.632;2023-07-29T02:56:55;18.80;99.90
15413;DHT22;7805;49.554;7.632;2023-07-29T02:59:21;18.80;99.90
15413;DHT22;7805;49.554;7.632;2023-07-29T03:01:47;18.70;99.90
15413;DHT22;7805;49.554;7.632;2023-07-29T03:04:12;18.70;99.90
15413;DHT22;7805;49.554;7.632;2023-07-29T03:06:40;18.80;99.90
15413;DHT22;7805;49.554;7.632;2023-07-29T03:09:06;18.80;99.90
15413;DHT22;7805;49.554;7.632;2023-07-29T03:11:32;18.80;99.90
15413;DHT22;7805;49.554;7.632;2023-07-29T03:13:57;18.80;99.90
15413;DHT22;7805;49.554;7.632;2023-07-29T03:16:23;18.80;99.90
15413;DHT22;7805;49.554;7.632;2023-07-29T03:18:49;18.80;99.90
15413;DHT22;7805;49.554;7.632;2023-07-29T03:21:15;18.80;99.90
15413;DHT22;7805;49.554;7.632;2023-07-29T03:23:40;18.80;99.90
15413;DHT22;7805;49.554;7.632;2023-07-29T03:26:06;18.80;99.90
15413;DHT22;7805;49.554;7.632;2023-07-29T03:28:41;18.90;99.90
15413;DHT22;7805;49.554;7.632;2023-07-29T03:31:07;18.70;99.90
15413;DHT22;7805;49.554;7.632;2023-07-29T03:33:33;18.70;99.90
15413;DHT22;7805;49.554;7.632;2023-07-29T03:35:58;18.80;99.90
15413;DHT22;7805;49.554;7.632;2023-07-29T03:38:24;18.80;99.90
15413;DHT22;7805;49.554;7.632;2023-07-29T03:40:50;18.80;99.90
15413;DHT22;7805;49.554;7.632;2023-07-29T03:43:16;18.80;99.90
15413;DHT22;7805;49.554;7.632;2023-07-29T03:45:42;18.80;99.90
15413;DHT22;7805;49.554;7.632;2023-07-29T03:48:07;18.80;99.90
15413;DHT22;7805;49.554;7.632;2023-07-29T03:50:34;18.90;99.90
15413;DHT22;7805;49.554;7.632;2023-07-29T03:53:04;18.90;99.90
15413;DHT22;7805;49.554;7.632;2023-07-29T03:55:30;18.90;99.90
15413;DHT22;7805;49.554;7.632;2023-07-29T03:57:57;18.90;99.90
15413;DHT22;7805;49.554;7.632;2023-07-29T04:00:22;18.90;99.90
15413;DHT22;7805;49.554;7.632;2023-07-29T04:02:48;18.90;99.90
15413;DHT22;7805;49.554;7.632;2023-07-29T04:05:14;18.90;99.90
15413;DHT22;7805;49.554;7.632;2023-07-29T04:07:40;18.90;99.90
15413;DHT22;7805;49.554;7.632;2023-07-29T04:10:06;19.00;99.90
15413;DHT22;7805;49.554;7.632;2023-07-29T04:12:32;18.90;99.90
15413;DHT22;7805;49.554;7.632;2023-07-29T04:14:57;18.90;99.90
15413;DHT22;7805;49.554;7.632;2023-07-29T04:17:23;18.90;99.90
15413;DHT22;7805;49.554;7.632;2023-07-29T04:19:49;18.90;99.90
15413;DHT22;7805;49.554;7.632;2023-07-29T04:22:15;18.90;99.90
15413;DHT22;7805;49.554;7.632;2023-07-29T04:24:41;19.10;99.90
15413;DHT22;7805;49.554;7.632;2023-07-29T04:27:07;19.00;99.90
15413;DHT22;7805;49.554;7.632;2023-07-29T04:29:33;19.10;99.90
15413;DHT22;7805;49.554;7.632;2023-07-29T04:32:01;19.10;99.90
15413;DHT22;7805;49.554;7.632;2023-07-29T04:34:26;19.20;99.90
15413;DHT22;7805;49.554;7.632;2023-07-29T04:36:52;19.20;99.90
15413;DHT22;7805;49.554;7.632;2023-07-29T04:39:18;19.20;99.90
15413;DHT22;7805;49.554;7.632;2023-07-29T04:41:43;19.20;99.90
15413;DHT22;7805;49.554;7.632;2023-07-29T04:44:09;19.40;99.90
15413;DHT22;7805;49.554;7.632;2023-07-29T04:46:35;19.20;99.90
15413;DHT22;7805;49.554;7.632;2023-07-29T04:49:01;19.40;99.90
15413;DHT22;7805;49.554;7.632;2023-07-29T04:51:28;19.30;99.90
15413;DHT22;7805;49.554;7.632;2023-07-29T04:53:53;19.30;99.90
15413;DHT22;7805;49.554;7.632;2023-07-29T04:56:19;19.40;99.90
15413;DHT22;7805;49.554;7.632;2023-07-29T04:58:45;19.50;99.90
15413;DHT22;7805;49.554;7.632;2023-07-29T05:01:10;19.40;99.90
15413;DHT22;7805;49.554;7.632;2023-07-29T05:03:36;19.50;99.90
15413;DHT22;7805;49.554;7.632;2023-07-29T05:06:02;19.60;99.90
15413;DHT22;7805;49.554;7.632;2023-07-29T05:08:28;19.60;99.90
15413;DHT22;7805;49.554;7.632;2023-07-29T05:10:53;19.60;99.90
15413;DHT22;7805;49.554;7.632;2023-07-29T05:13:20;19.60;99.90
15413;DHT22;7805;49.554;7.632;2023-07-29T05:15:47;19.70;99.90
15413;DHT22;7805;49.554;7.632;2023-07-29T05:18:12;19.80;99.90
15413;DHT22;7805;49.554;7.632;2023-07-29T05:20:38;19.70;99.90
15413;DHT22;7805;49.554;7.632;2023-07-29T05:23:03;19.80;99.90
15413;DHT22;7805;49.554;7.632;2023-07-29T05:25:29;19.90;99.90
15413;DHT22;7805;49.554;7.632;2023-07-29T05:27:55;18.90;99.90
15413;DHT22;7805;49.554;7.632;2023-07-29T05:30:20;19.90;99.90
15413;DHT22;7805;49.554;7.632;2023-07-29T05:32:46;20.00;99.90
15413;DHT22;7805;49.554;7.632;2023-07-29T05:35:11;20.00;99.90
15413;DHT22;7805;49.554;7.632;2023-07-29T05:37:41;20.00;99.90
15413;DHT22;7805;49.554;7.632;2023-07-29T05:40:07;20.00;99.90
15413;DHT22;7805;49.554;7.632;2023-07-29T05:42:33;20.00;99.90
15413;DHT22;7805;49.554;7.632;2023-07-29T05:44:59;20.00;99.90
15413;DHT22;7805;49.554;7.632;2023-07-29T05:47:24;20.00;99.90
15413;DHT22;7805;49.554;7.632;2023-07-29T05:49:50;20.00;99.90
15413;DHT22;7805;49.554;7.632;2023-07-29T05:52:16;20.10;99.90
15413;DHT22;7805;49.554;7.632;2023-07-29T05:54:41;20.10;99.90
15413;DHT22;7805;49.554;7.632;2023-07-29T05:57:12;20.10;99.90
15413;DHT22;7805;49.554;7.632;2023-07-29T05:59:38;20.20;99.90
15413;DHT22;7805;49.554;7.632;2023-07-29T06:02:04;20.30;99.90
15413;DHT22;7805;49.554;7.632;2023-07-29T06:04:29;20.20;99.90
15413;DHT22;7805;49.554;7.632;2023-07-29T06:06:55;20.20;99.90
15413;DHT22;7805;49.554;7.632;2023-07-29T06:09:22;20.20;99.90
15413;DHT22;7805;49.554;7.632;2023-07-29T06:11:47;20.10;99.90
15413;DHT22;7805;49.554;7.632;2023-07-29T06:14:13;20.10;99.90
15413;DHT22;7805;49.554;7.632;2023-07-29T06:16:38;20.30;99.90
15413;DHT22;7805;49.554;7.632;2023-07-29T06:19:04;20.10;99.90
15413;DHT22;7805;49.554;7.632;2023-07-29T06:21:30;20.20;99.90
15413;DHT22;7805;49.554;7.632;2023-07-29T06:23:56;20.20;99.90
15413;DHT22;7805;49.554;7.632;2023-07-29T06:26:21;20.30;99.90
15413;DHT22;7805;49.554;7.632;2023-07-29T06:28:47;20.30;99.90
15413;DHT22;7805;49.554;7.632;2023-07-29T06:31:12;20.30;99.90
15413;DHT22;7805;49.554;7.632;2023-07-29T06:33:38;20.30;99.90
15413;DHT22;7805;49.554;7.632;2023-07-29T06:36:04;20.30;99.90
15413;DHT22;7805;49.554;7.632;2023-07-29T06:38:29;20.20;99.90
15413;DHT22;7805;49.554;7.632;2023-07-29T06:40:55;19.20;99.90
15413;DHT22;7805;49.554;7.632;2023-07-29T06:43:21;20.10;99.90
15413;DHT22;7805;49.554;7.632;2023-07-29T06:45:46;20.10;99.90
15413;DHT22;7805;49.554;7.632;2023-07-29T06:48:12;20.20;99.90
15413;DHT22;7805;49.554;7.632;2023-07-29T06:50:37;19.90;99.90
15413;DHT22;7805;49.554;7.632;2023-07-29T06:53:03;19.80;99.90
15413;DHT22;7805;49.554;7.632;2023-07-29T06:55:29;19.70;99.90
15413;DHT22;7805;49.554;7.632;2023-07-29T06:57:55;19.60;99.90
15413;DHT22;7805;49.554;7.632;2023-07-29T07:00:20;19.30;99.90
15413;DHT22;7805;49.554;7.632;2023-07-29T07:02:46;19.60;99.90
15413;DHT22;7805;49.554;7.632;2023-07-29T07:05:11;19.30;99.90
15413;DHT22;7805;49.554;7.632;2023-07-29T07:07:37;19.50;99.90
15413;DHT22;7805;49.554;7.632;2023-07-29T07:10:03;19.40;99.90
15413;DHT22;7805;49.554;7.632;2023-07-29T07:12:29;19.40;99.90
15413;DHT22;7805;49.554;7.632;2023-07-29T07:14:54;19.50;99.90
15413;DHT22;7805;49.554;7.632;2023-07-29T07:17:20;21.60;99.90
15413;DHT22;7805;49.554;7.632;2023-07-29T07:19:45;19.40;99.90
15413;DHT22;7805;49.554;7.632;2023-07-29T07:22:11;19.50;99.90
15413;DHT22;7805;49.554;7.632;2023-07-29T07:24:37;19.50;99.90
15413;DHT22;7805;49.554;7.632;2023-07-29T07:27:03;19.60;99.90
15413;DHT22;7805;49.554;7.632;2023-07-29T07:29:28;19.60;99.90
15413;DHT22;7805;49.554;7.632;2023-07-29T07:31:56;19.70;99.90
15413;DHT22;7805;49.554;7.632;2023-07-29T07:34:21;20.00;99.90
15413;DHT22;7805;49.554;7.632;2023-07-29T07:36:47;19.90;99.90
15413;DHT22;7805;49.554;7.632;2023-07-29T07:39:13;20.20;99.90
15413;DHT22;7805;49.554;7.632;2023-07-29T07:41:39;20.30;99.90
15413;DHT22;7805;49.554;7.632;2023-07-29T07:44:04;20.50;99.90
15413;DHT22;7805;49.554;7.632;2023-07-29T07:46:30;20.80;99.90
15413;DHT22;7805;49.554;7.632;2023-07-29T07:48:55;20.90;99.90
15413;DHT22;7805;49.554;7.632;2023-07-29T07:51:21;21.00;99.90
15413;DHT22;7805;49.554;7.632;2023-07-29T07:53:48;21.20;99.90
15413;DHT22;7805;49.554;7.632;2023-07-29T07:56:14;21.40;99.90
15413;DHT22;7805;49.554;7.632;2023-07-29T07:58:40;21.60;99.90
15413;DHT22;7805;49.554;7.632;2023-07-29T08:01:07;21.80;99.90
15413;DHT22;7805;49.554;7.632;2023-07-29T08:03:33;22.10;99.90
15413;DHT22;7805;49.554;7.632;2023-07-29T08:05:59;22.70;99.90
15413;DHT22;7805;49.554;7.632;2023-07-29T08:08:25;23.00;99.90
15413;DHT22;7805;49.554;7.632;2023-07-29T08:10:53;23.20;99.90
15413;DHT22;7805;49.554;7.632;2023-07-29T08:13:19;23.20;99.90
15413;DHT22;7805;49.554;7.632;2023-07-29T08:15:49;23.20;99.90
15413;DHT22;7805;49.554;7.632;2023-07-29T08:18:15;23.10;99.90
15413;DHT22;7805;49.554;7.632;2023-07-29T08:20:41;23.20;99.90
15413;DHT22;7805;49.554;7.632;2023-07-29T08:23:06;23.30;99.90
15413;DHT22;7805;49.554;7.632;2023-07-29T08:25:32;23.50;99.90
15413;DHT22;7805;49.554;7.632;2023-07-29T08:27:57;23.60;99.90
15413;DHT22;7805;49.554;7.632;2023-07-29T08:30:23;23.60;99.90
15413;DHT22;7805;49.554;7.632;2023-07-29T08:32:48;23.40;99.90
15413;DHT22;7805;49.554;7.632;2023-07-29T08:35:14;22.00;99.90
15413;DHT22;7805;49.554;7.632;2023-07-29T08:37:40;23.50;99.90
15413;DHT22;7805;49.554;7.632;2023-07-29T08:40:06;23.60;99.90
15413;DHT22;7805;49.554;7.632;2023-07-29T08:42:32;23.80;99.90
15413;DHT22;7805;49.554;7.632;2023-07-29T08:45:06;23.90;99.90
15413;DHT22;7805;49.554;7.632;2023-07-29T08:47:33;24.20;99.90
15413;DHT22;7805;49.554;7.632;2023-07-29T08:49:59;24.30;99.90
15413;DHT22;7805;49.554;7.632;2023-07-29T08:52:26;23.80;99.90
15413;DHT22;7805;49.554;7.632;2023-07-29T08:54:52;24.60;99.90
15413;DHT22;7805;49.554;7.632;2023-07-29T08:57:19;25.00;99.90
15413;DHT22;7805;49.554;7.632;2023-07-29T08:59:46;25.20;99.90
15413;DHT22;7805;49.554;7.632;2023-07-29T09:02:11;25.40;99.90
15413;DHT22;7805;49.554;7.632;2023-07-29T09:04:37;25.40;99.90
15413;DHT22;7805;49.554;7.632;2023-07-29T09:07:03;25.60;99.90
15413;DHT22;7805;49.554;7.632;2023-07-29T09:09:30;25.80;99.90
15413;DHT22;7805;49.554;7.632;2023-07-29T09:11:56;25.60;99.90
15413;DHT22;7805;49.554;7.632;2023-07-29T09:14:23;25.80;99.90
15413;DHT22;7805;49.554;7.632;2023-07-29T09:16:49;25.60;99.90
15413;DHT22;7805;49.554;7.632;2023-07-29T09:19:14;25.40;99.90
15413;DHT22;7805;49.554;7.632;2023-07-29T09:21:40;25.40;99.90
15413;DHT22;7805;49.554;7.632;2023-07-29T09:24:07;25.50;99.90
15413;DHT22;7805;49.554;7.632;2023-07-29T09:26:33;25.80;99.90
15413;DHT22;7805;49.554;7.632;2023-07-29T09:29:00;26.10;99.90
15413;DHT22;7805;49.554;7.632;2023-07-29T09:31:27;26.00;99.90
15413;DHT22;7805;49.554;7.632;2023-07-29T09:34:00;26.20;99.90
15413;DHT22;7805;49.554;7.632;2023-07-29T09:36:27;26.50;99.90
15413;DHT22;7805;49.554;7.632;2023-07-29T09:38:53;26.50;99.90
15413;DHT22;7805;49.554;7.632;2023-07-29T09:41:25;26.70;99.90
15413;DHT22;7805;49.554;7.632;2023-07-29T09:46:24;27.10;99.90
15413;DHT22;7805;49.554;7.632;2023-07-29T09:48:53;26.80;99.90
15413;DHT22;7805;49.554;7.632;2023-07-29T09:51:20;26.70;99.90
15413;DHT22;7805;49.554;7.632;2023-07-29T09:53:47;26.70;99.90
15413;DHT22;7805;49.554;7.632;2023-07-29T09:56:13;26.80;99.90
15413;DHT22;7805;49.554;7.632;2023-07-29T09:58:40;27.00;99.90
15413;DHT22;7805;49.554;7.632;2023-07-29T10:01:07;27.10;99.90
15413;DHT22;7805;49.554;7.632;2023-07-29T10:03:34;26.80;99.90
15413;DHT22;7805;49.554;7.632;2023-07-29T10:06:05;27.00;99.90
15413;DHT22;7805;49.554;7.632;2023-07-29T10:08:31;27.00;99.90
15413;DHT22;7805;49.554;7.632;2023-07-29T10:11:02;26.80;99.90
15413;DHT22;7805;49.554;7.632;2023-07-29T10:13:28;26.70;99.90
15413;DHT22;7805;49.554;7.632;2023-07-29T10:15:54;26.40;99.90
15413;DHT22;7805;49.554;7.632;2023-07-29T10:18:22;26.30;99.90
15413;DHT22;7805;49.554;7.632;2023-07-29T10:20:50;25.70;99.90
15413;DHT22;7805;49.554;7.632;2023-07-29T10:23:18;25.60;99.90
15413;DHT22;7805;49.554;7.632;2023-07-29T10:25:47;25.60;99.90
15413;DHT22;7805;49.554;7.632;2023-07-29T10:28:15;25.50;99.90
15413;DHT22;7805;49.554;7.632;2023-07-29T10:30:44;25.80;99.90
15413;DHT22;7805;49.554;7.632;2023-07-29T10:33:10;26.20;99.90
15413;DHT22;7805;49.554;7.632;2023-07-29T10:35:36;26.40;99.90
15413;DHT22;7805;49.554;7.632;2023-07-29T10:38:03;26.80;99.90
15413;DHT22;7805;49.554;7.632;2023-07-29T10:41:08;27.10;99.60
15413;DHT22;7805;49.554;7.632;2023-07-29T10:43:35;27.30;98.80
15413;DHT22;7805;49.554;7.632;2023-07-29T10:46:19;27.50;98.10
15413;DHT22;7805;49.554;7.632;2023-07-29T10:48:54;27.30;97.00
15413;DHT22;7805;49.554;7.632;2023-07-29T10:51:24;27.10;97.60
15413;DHT22;7805;49.554;7.632;2023-07-29T10:54:02;26.90;98.00
15413;DHT22;7805;49.554;7.632;2023-07-29T10:56:32;26.70;98.00
15413;DHT22;7805;49.554;7.632;2023-07-29T11:01:57;26.80;99.30
15413;DHT22;7805;49.554;7.632;2023-07-29T11:04:30;27.10;98.20
15413;DHT22;7805;49.554;7.632;2023-07-29T11:09:51;27.10;96.80
15413;DHT22;7805;49.554;7.632;2023-07-29T11:12:45;27.30;97.40
15413;DHT22;7805;49.554;7.632;2023-07-29T11:15:18;27.40;96.20
15413;DHT22;7805;49.554;7.632;2023-07-29T11:17:46;27.20;96.60
15413;DHT22;7805;49.554;7.632;2023-07-29T11:20:13;27.10;97.20
15413;DHT22;7805;49.554;7.632;2023-07-29T11:22:40;27.30;96.90
15413;DHT22;7805;49.554;7.632;2023-07-29T11:25:08;27.30;96.50
15413;DHT22;7805;49.554;7.632;2023-07-29T11:27:35;27.40;95.70
15413;DHT22;7805;49.554;7.632;2023-07-29T11:30:02;27.20;94.80
15413;DHT22;7805;49.554;7.632;2023-07-29T11:32:30;27.10;94.70
15413;DHT22;7805;49.554;7.632;2023-07-29T11:34:57;27.20;95.40
15413;DHT22;7805;49.554;7.632;2023-07-29T11:37:25;27.50;94.90
15413;DHT22;7805;49.554;7.632;2023-07-29T11:39:50;27.50;94.00
15413;DHT22;7805;49.554;7.632;2023-07-29T11:42:16;27.60;94.40
15413;DHT22;7805;49.554;7.632;2023-07-29T11:44:42;27.90;94.40
15413;DHT22;7805;49.554;7.632;2023-07-29T11:47:08;28.10;93.90
15413;DHT22;7805;49.554;7.632;2023-07-29T11:49:35;28.30;93.50
15413;DHT22;7805;49.554;7.632;2023-07-29T11:52:02;28.30;92.40
15413;DHT22;7805;49.554;7.632;2023-07-29T11:54:28;28.00;92.50
15413;DHT22;7805;49.554;7.632;2023-07-29T11:56:55;28.10;92.90
15413;DHT22;7805;49.554;7.632;2023-07-29T11:59:20;28.30;93.20
15413;DHT22;7805;49.554;7.632;2023-07-29T12:01:46;28.60;92.90
15413;DHT22;7805;49.554;7.632;2023-07-29T12:04:13;28.80;92.30
15413;DHT22;7805;49.554;7.632;2023-07-29T12:06:39;28.60;91.60
15413;DHT22;7805;49.554;7.632;2023-07-29T12:09:05;28.40;91.30
15413;DHT22;7805;49.554;7.632;2023-07-29T12:11:32;28.20;91.90
15413;DHT22;7805;49.554;7.632;2023-07-29T12:13:57;28.30;91.70
15413;DHT22;7805;49.554;7.632;2023-07-29T12:16:24;28.60;91.00
15413;DHT22;7805;49.554;7.632;2023-07-29T12:18:50;28.50;90.60
15413;DHT22;7805;49.554;7.632;2023-07-29T12:21:17;28.50;90.60
15413;DHT22;7805;49.554;7.632;2023-07-29T12:23:43;28.60;91.40
15413;DHT22;7805;49.554;7.632;2023-07-29T12:26:08;28.70;90.80
15413;DHT22;7805;49.554;7.632;2023-07-29T12:28:34;28.60;90.60
15413;DHT22;7805;49.554;7.632;2023-07-29T12:30:59;28.50;90.40
15413;DHT22;7805;49.554;7.632;2023-07-29T12:33:35;28.40;90.10
15413;DHT22;7805;49.554;7.632;2023-07-29T12:36:04;28.60;90.20
15413;DHT22;7805;49.554;7.632;2023-07-29T12:38:33;28.80;89.00
15413;DHT22;7805;49.554;7.632;2023-07-29T12:40:59;28.90;88.80
15413;DHT22;7805;49.554;7.632;2023-07-29T12:43:25;28.90;89.50
15413;DHT22;7805;49.554;7.632;2023-07-29T12:45:51;28.90;88.60
15413;DHT22;7805;49.554;7.632;2023-07-29T12:48:17;28.90;89.80
15413;DHT22;7805;49.554;7.632;2023-07-29T12:50:43;29.30;89.20
15413;DHT22;7805;49.554;7.632;2023-07-29T12:53:09;28.20;89.60
15413;DHT22;7805;49.554;7.632;2023-07-29T12:55:38;27.90;90.30
15413;DHT22;7805;49.554;7.632;2023-07-29T12:58:04;27.50;91.00
15413;DHT22;7805;49.554;7.632;2023-07-29T13:00:30;27.20;91.50
15413;DHT22;7805;49.554;7.632;2023-07-29T13:02:55;27.40;92.10
15413;DHT22;7805;49.554;7.632;2023-07-29T13:05:21;27.40;92.10
15413;DHT22;7805;49.554;7.632;2023-07-29T13:07:46;27.40;91.60
15413;DHT22;7805;49.554;7.632;2023-07-29T13:10:12;27.30;91.90
15413;DHT22;7805;49.554;7.632;2023-07-29T13:12:38;27.40;92.10
15413;DHT22;7805;49.554;7.632;2023-07-29T13:15:05;27.60;92.20
15413;DHT22;7805;49.554;7.632;2023-07-29T13:17:31;28.80;92.30
15413;DHT22;7805;49.554;7.632;2023-07-29T13:19:56;27.90;91.30
15413;DHT22;7805;49.554;7.632;2023-07-29T13:22:22;27.70;91.30
15413;DHT22;7805;49.554;7.632;2023-07-29T13:24:47;27.70;91.80
15413;DHT22;7805;49.554;7.632;2023-07-29T13:27:13;27.80;92.10
15413;DHT22;7805;49.554;7.632;2023-07-29T13:29:39;28.20;91.80
15413;DHT22;7805;49.554;7.632;2023-07-29T13:32:06;28.60;91.10
15413;DHT22;7805;49.554;7.632;2023-07-29T13:34:31;29.10;90.50
15413;DHT22;7805;49.554;7.632;2023-07-29T13:36:57;29.40;90.00
15413;DHT22;7805;49.554;7.632;2023-07-29T13:39:23;29.70;89.50
15413;DHT22;7805;49.554;7.632;2023-07-29T13:41:48;29.70;87.00
15413;DHT22;7805;49.554;7.632;2023-07-29T13:44:14;29.40;85.20
15413;DHT22;7805;49.554;7.632;2023-07-29T13:46:39;29.30;86.50
15413;DHT22;7805;49.554;7.632;2023-07-29T13:49:05;27.00;85.90
15413;DHT22;7805;49.554;7.632;2023-07-29T13:51:30;27.10;85.90
15413;DHT22;7805;49.554;7.632;2023-07-29T13:53:56;28.70;87.90
15413;DHT22;7805;49.554;7.632;2023-07-29T13:56:22;28.30;88.90
15413;DHT22;7805;49.554;7.632;2023-07-29T13:58:48;28.30;90.00
15413;DHT22;7805;49.554;7.632;2023-07-29T14:01:13;27.90;90.00
15413;DHT22;7805;49.554;7.632;2023-07-29T14:03:39;27.90;90.10
15413;DHT22;7805;49.554;7.632;2023-07-29T14:06:04;28.10;90.50
15413;DHT22;7805;49.554;7.632;2023-07-29T14:08:30;28.20;90.40
15413;DHT22;7805;49.554;7.632;2023-07-29T14:10:55;28.70;90.30
15413;DHT22;7805;49.554;7.632;2023-07-29T14:13:21;28.90;90.40
15413;DHT22;7805;49.554;7.632;2023-07-29T14:15:47;29.40;89.70
15413;DHT22;7805;49.554;7.632;2023-07-29T14:18:12;29.50;89.00
15413;DHT22;7805;49.554;7.632;2023-07-29T14:20:38;29.70;87.80
15413;DHT22;7805;49.554;7.632;2023-07-29T14:23:04;29.50;86.30
15413;DHT22;7805;49.554;7.632;2023-07-29T14:25:30;30.40;87.40
15413;DHT22;7805;49.554;7.632;2023-07-29T14:27:55;29.60;86.20
15413;DHT22;7805;49.554;7.632;2023-07-29T14:30:21;29.50;86.60
15413;DHT22;7805;49.554;7.632;2023-07-29T14:32:46;29.40;87.40
15413;DHT22;7805;49.554;7.632;2023-07-29T14:35:12;29.40;86.10
15413;DHT22;7805;49.554;7.632;2023-07-29T14:37:38;29.40;86.00
15413;DHT22;7805;49.554;7.632;2023-07-29T14:40:04;29.60;85.60
15413;DHT22;7805;49.554;7.632;2023-07-29T14:42:30;29.70;84.20
15413;DHT22;7805;49.554;7.632;2023-07-29T14:44:56;29.80;84.20
15413;DHT22;7805;49.554;7.632;2023-07-29T14:47:21;30.10;82.90
15413;DHT22;7805;49.554;7.632;2023-07-29T14:49:47;30.10;82.90
15413;DHT22;7805;49.554;7.632;2023-07-29T14:52:12;29.80;81.50
15413;DHT22;7805;49.554;7.632;2023-07-29T14:54:38;29.30;82.70
15413;DHT22;7805;49.554;7.632;2023-07-29T14:57:06;29.40;84.70
15413;DHT22;7805;49.554;7.632;2023-07-29T14:59:31;29.60;84.10
15413;DHT22;7805;49.554;7.632;2023-07-29T15:01:57;30.00;84.90
15413;DHT22;7805;49.554;7.632;2023-07-29T15:04:23;30.10;84.10
15413;DHT22;7805;49.554;7.632;2023-07-29T15:06:48;30.30;83.10
15413;DHT22;7805;49.554;7.632;2023-07-29T15:09:14;29.90;79.80
15413;DHT22;7805;49.554;7.632;2023-07-29T15:11:39;29.80;81.60
15413;DHT22;7805;49.554;7.632;2023-07-29T15:14:06;30.00;83.20
15413;DHT22;7805;49.554;7.632;2023-07-29T15:16:32;28.80;81.90
15413;DHT22;7805;49.554;7.632;2023-07-29T15:18:59;30.10;81.10
15413;DHT22;7805;49.554;7.632;2023-07-29T15:21:24;30.00;80.80
15413;DHT22;7805;49.554;7.632;2023-07-29T15:23:50;29.70;80.80
15413;DHT22;7805;49.554;7.632;2023-07-29T15:26:16;29.80;79.70
15413;DHT22;7805;49.554;7.632;2023-07-29T15:28:41;29.70;80.80
15413;DHT22;7805;49.554;7.632;2023-07-29T15:31:07;29.90;80.90
15413;DHT22;7805;49.554;7.632;2023-07-29T15:33:32;30.20;79.90
15413;DHT22;7805;49.554;7.632;2023-07-29T15:36:00;30.10;78.20
15413;DHT22;7805;49.554;7.632;2023-07-29T15:38:25;30.20;79.90
15413;DHT22;7805;49.554;7.632;2023-07-29T15:40:51;30.30;79.90
15413;DHT22;7805;49.554;7.632;2023-07-29T15:43:17;30.00;78.30
15413;DHT22;7805;49.554;7.632;2023-07-29T15:45:43;29.60;79.50
15413;DHT22;7805;49.554;7.632;2023-07-29T15:48:10;29.30;80.70
15413;DHT22;7805;49.554;7.632;2023-07-29T15:50:35;29.40;81.80